Time;durP1;ratioP1;P1;durP2;ratioP2;P2;SDS_P1;SDS_P2;PMS_P1;PMS_P2;Temp;Humidity;BMP_temperature;BMP_pressure;BME280_temperature;BME280_humidity;BME280_pressure;Samples;Min_cycle;Max_cycle;Signal;HPM_P1;HPM_P2
2022/01/20 00:02:27;;;;;;;;;;;;;;;6.68;79.85;102335.78;5056362;28;20033;-73
2022/01/20 00:05:11;;;;;;;13.88;1.92;;;;;;;6.69;79.42;102324.09;5057102;28;19913;-75
2022/01/20 00:08:06;;;;;;;28.88;5.85;;;;;;;6.85;78.79;102326.78;5075322;28;20044;-73
2022/01/20 00:26:57;;;;;;;11.50;3.30;;;;;;;5.95;81.41;102335.50;5055167;28;20048;-74
2022/01/20 00:29:30;;;;;;;27.42;2.00;;;;;;;5.89;81.03;102349.47;5055435;28;20033;-74
2022/01/20 00:32:11;;;;;;;32.88;5.45;;;;;;;6.03;81.02;102332.03;5055071;28;20048;-74
2022/01/20 00:37:22;;;;;;;13.95;3.55;;;;;;;6.35;79.40;102329.47;5054423;28;19932;-74
2022/01/20 00:39:48;;;;;;;19.08;2.17;;;;;;;6.15;80.31;102328.91;5054505;28;20468;-73
2022/01/20 00:42:15;;;;;;;13.55;2.55;;;;;;;6.27;80.34;102336.66;5054979;28;20036;-73
2022/01/20 00:44:41;;;;;;;17.60;2.60;;;;;;;6.24;80.02;102337.78;5055438;28;20024;-74
2022/01/20 00:47:06;;;;;;;28.38;3.70;;;;;;;6.00;81.14;102325.16;5054821;28;20041;-74
2022/01/20 00:49:32;;;;;;;17.05;2.13;;;;;;;5.99;81.62;102336.00;5054590;28;20036;-73
2022/01/20 00:51:57;;;;;;;22.40;4.35;;;;;;;6.08;80.94;102343.91;5054487;28;20119;-74
2022/01/20 00:54:22;;;;;;;14.25;2.65;;;;;;;5.97;80.88;102336.19;5054350;28;20036;-73
2022/01/20 00:56:48;;;;;;;15.50;1.92;;;;;;;5.95;81.36;102348.00;5054997;28;20098;-73
2022/01/20 00:59:14;;;;;;;17.83;3.83;;;;;;;5.89;81.18;102349.47;5054618;28;20045;-74
2022/01/20 01:01:39;;;;;;;15.40;2.58;;;;;;;5.86;81.35;102346.25;5059481;28;20041;-73
2022/01/20 01:04:05;;;;;;;13.75;3.35;;;;;;;5.79;81.85;102351.38;5074345;28;20040;-74
2022/01/20 01:09:14;;;;;;;20.38;3.28;;;;;;;5.72;82.53;102363.63;5054177;28;20040;-74
2022/01/20 01:11:42;;;;;;;15.35;1.95;;;;;;;5.88;82.02;102369.13;5054621;28;20028;-74
2022/01/20 01:14:08;;;;;;;22.10;2.55;;;;;;;5.89;81.36;102373.47;5053941;28;20129;-73
2022/01/20 01:19:49;;;;;;;8.88;2.05;;;;;;;5.99;81.24;102365.38;5053917;28;20573;-72
2022/01/20 01:22:29;;;;;;;34.00;3.45;;;;;;;6.15;80.32;102366.28;5053916;28;20095;-72
2022/01/20 01:24:54;;;;;;;17.13;2.33;;;;;;;6.25;80.10;102373.34;5053173;28;20068;-73
2022/01/20 01:27:22;;;;;;;19.10;2.70;;;;;;;6.26;80.48;102375.84;5054073;28;20037;-73
2022/01/20 01:32:34;;;;;;;24.25;3.30;;;;;;;6.26;80.40;102364.31;5053781;28;20040;-72
2022/01/20 01:35:03;;;;;;;25.65;2.83;;;;;;;6.34;80.21;102369.69;5052017;28;20083;-72
2022/01/20 01:40:14;;;;;;;19.98;3.08;;;;;;;6.47;80.47;102364.72;4992085;28;20109;-74
2022/01/20 01:42:46;;;;;;;28.60;2.67;;;;;;;6.52;80.27;102357.94;4992219;28;20038;-73
2022/01/20 01:45:19;;;;;;;18.10;2.97;;;;;;;6.34;80.88;102367.03;4992214;28;20049;-75
2022/01/20 01:47:46;;;;;;;25.08;2.55;;;;;;;6.39;80.60;102372.75;4992500;28;20060;-74
2022/01/20 01:50:12;;;;;;;20.58;4.43;;;;;;;6.30;80.95;102371.84;4991935;28;20183;-74
2022/01/20 01:52:38;;;;;;;26.15;3.63;;;;;;;6.51;80.61;102376.75;4991946;28;20043;-73
2022/01/20 01:55:04;;;;;;;19.33;2.80;;;;;;;6.43;80.49;102376.75;4991784;28;20034;-73
2022/01/20 01:57:29;;;;;;;24.05;3.72;;;;;;;6.49;80.52;102387.63;4991716;28;20549;-75
2022/01/20 01:59:55;;;;;;;20.83;2.88;;;;;;;6.51;80.61;102390.13;4991597;28;20030;-73
2022/01/20 02:02:22;;;;;;;18.80;3.20;;;;;;;6.24;81.02;102377.84;4992154;28;20460;-74
2022/01/20 02:04:49;;;;;;;26.73;3.50;;;;;;;6.69;79.89;102386.38;4991709;28;20502;-73
2022/01/20 02:20:45;;;;;;;15.50;2.95;;;;;;;6.67;80.02;102374.16;4953097;29;20451;-73
2022/01/20 02:23:11;;;;;;;23.80;3.38;;;;;;;6.70;80.16;102373.84;4952597;29;20101;-74
2022/01/20 02:25:37;;;;;;;20.40;2.53;;;;;;;6.82;79.07;102377.91;4952380;29;20047;-73
2022/01/20 02:28:09;;;;;;;15.25;3.05;;;;;;;6.52;80.27;102379.31;4960484;28;20551;-73
2022/01/20 02:30:36;;;;;;;12.30;1.48;;;;;;;6.43;79.54;102376.75;4971916;28;20077;-71
2022/01/20 02:33:05;;;;;;;17.98;2.42;;;;;;;6.61;78.43;102369.47;4971693;28;20137;-72
2022/01/20 02:35:37;;;;;;;11.98;2.22;;;;;;;6.40;79.21;102377.06;4989707;28;20037;-73
2022/01/20 02:38:12;;;;;;;15.45;3.00;;;;;;;6.43;79.20;102379.44;4990840;28;20042;-75
2022/01/20 02:45:52;;;;;;;16.55;2.80;;;;;;;6.57;78.68;102409.03;4991389;28;20081;-72
2022/01/20 02:48:17;;;;;;;5.53;1.45;;;;;;;5.99;80.99;102432.91;4990787;28;20471;-68
2022/01/20 02:50:42;;;;;;;10.90;1.50;;;;;;;6.08;81.59;102412.44;4991367;28;20044;-70
2022/01/20 02:53:08;;;;;;;9.40;2.00;;;;;;;6.07;82.33;102408.09;4991205;28;20066;-71
2022/01/20 02:55:33;;;;;;;15.07;2.13;;;;;;;5.71;83.03;102404.66;4973358;28;20162;-70
2022/01/20 02:57:59;;;;;;;12.75;2.55;;;;;;;5.84;82.46;102398.91;5019635;28;20040;-71
2022/01/20 03:00:24;;;;;;;10.75;1.20;;;;;;;5.73;82.73;102413.34;5052651;28;20037;-70
2022/01/20 03:02:50;;;;;;;4.45;1.05;;;;;;;5.86;82.30;102396.94;5053266;28;20468;-70
2022/01/20 03:05:16;;;;;;;11.50;2.65;;;;;;;5.69;83.59;102398.63;5052187;28;20492;-71
2022/01/20 03:07:42;;;;;;;10.90;2.55;;;;;;;5.93;82.74;102406.84;5051949;28;20037;-72
2022/01/20 03:10:08;;;;;;;15.07;1.60;;;;;;;5.83;82.49;102415.91;5052005;28;20577;-72
2022/01/20 03:12:34;;;;;;;10.23;2.53;;;;;;;5.67;83.26;102424.63;5052142;28;20049;-71
2022/01/20 03:14:59;;;;;;;11.52;1.60;;;;;;;5.85;82.48;102421.94;5052214;28;20036;-72
2022/01/20 03:17:25;;;;;;;3.75;0.70;;;;;;;5.76;82.68;102420.19;5052573;28;20060;-71
2022/01/20 03:19:51;;;;;;;3.15;0.90;;;;;;;5.74;82.93;102416.84;5052357;28;20092;-72
2022/01/20 03:22:17;;;;;;;11.35;1.45;;;;;;;5.43;83.78;102435.06;5051952;28;20086;-71
2022/01/20 03:24:42;;;;;;;13.75;1.20;;;;;;;5.56;83.10;102437.34;5052622;28;20037;-72
2022/01/20 03:27:08;;;;;;;6.25;1.20;;;;;;;5.82;82.26;102430.22;5052089;28;20028;-73
2022/01/20 03:29:34;;;;;;;10.52;2.15;;;;;;;5.76;81.64;102445.00;5052918;28;20033;-72
2022/01/20 03:31:59;;;;;;;7.93;2.08;;;;;;;5.63;81.82;102449.06;5052551;28;20029;-72
2022/01/20 03:34:24;;;;;;;5.13;1.40;;;;;;;5.74;82.24;102447.00;5052157;28;20041;-73
2022/01/20 03:36:50;;;;;;;12.88;1.30;;;;;;;5.79;82.27;102452.72;5042099;28;20068;-73
2022/01/20 03:39:17;;;;;;;9.10;1.92;;;;;;;5.76;81.50;102455.69;5032167;28;20041;-73
2022/01/20 03:41:42;;;;;;;9.32;1.13;;;;;;;5.83;81.64;102464.78;5032742;28;20083;-72
2022/01/20 03:44:08;;;;;;;7.15;2.05;;;;;;;5.71;82.00;102460.66;5031992;28;20078;-71
2022/01/20 03:46:34;;;;;;;11.82;1.90;;;;;;;5.55;82.05;102492.50;5032072;28;20123;-71
2022/01/20 03:49:09;;;;;;;12.88;1.58;;;;;;;5.62;82.36;102479.41;5032055;28;20044;-72
2022/01/20 03:51:34;;;;;;;9.25;1.45;;;;;;;5.55;82.22;102481.84;5047761;28;20151;-73
2022/01/20 03:54:00;;;;;;;16.23;2.45;;;;;;;5.54;81.67;102464.19;5044405;28;20045;-72
2022/01/20 03:56:25;;;;;;;9.68;1.58;;;;;;;5.45;82.70;102459.75;5032401;28;20056;-72
2022/01/20 03:58:52;;;;;;;11.35;1.60;;;;;;;5.53;81.98;102458.97;5032493;28;20045;-73
2022/01/20 04:01:19;;;;;;;10.15;1.30;;;;;;;5.61;81.54;102462.56;5035152;28;20479;-72
2022/01/20 04:03:44;;;;;;;12.90;2.85;;;;;;;5.53;81.02;102465.16;5035614;28;20026;-72
2022/01/20 04:06:11;;;;;;;14.82;2.30;;;;;;;5.57;80.85;102487.00;5035051;28;20070;-73
2022/01/20 04:08:40;;;;;;;13.15;2.00;;;;;;;5.66;80.21;102486.13;5035694;28;20029;-73
2022/01/20 04:11:08;;;;;;;17.63;2.13;;;;;;;5.53;80.04;102481.16;5035387;28;20426;-74
2022/01/20 04:13:34;;;;;;;14.65;2.78;;;;;;;5.81;78.50;102481.91;5035351;28;20030;-73
2022/01/20 04:16:10;;;;;;;16.65;2.75;;;;;;;5.68;77.58;102481.47;5035226;28;20061;-72
2022/01/20 04:18:36;;;;;;;20.65;2.40;;;;;;;5.76;76.70;102486.88;5035623;28;20044;-74
2022/01/20 04:21:03;;;;;;;26.90;3.15;;;;;;;5.65;76.92;102487.94;5034670;28;20400;-74
2022/01/20 04:23:30;;;;;;;19.08;3.17;;;;;;;5.53;74.52;102496.31;5035807;28;20031;-72
2022/01/20 04:25:55;;;;;;;13.43;2.72;;;;;;;5.65;74.48;102492.41;5034867;28;20037;-73
2022/01/20 04:28:21;;;;;;;28.35;3.17;;;;;;;5.71;73.04;102489.16;5033808;28;20042;-73
2022/01/20 04:30:46;;;;;;;27.23;3.22;;;;;;;5.63;71.59;102481.91;5035359;28;20026;-74
2022/01/20 04:33:11;;;;;;;26.15;3.05;;;;;;;5.55;71.43;102494.31;5035071;28;20172;-72
2022/01/20 04:35:37;;;;;;;25.80;4.07;;;;;;;5.55;70.25;102497.84;5017150;28;20366;-72
2022/01/20 04:38:03;;;;;;;21.52;3.22;;;;;;;5.45;70.49;102499.72;5015275;28;20042;-73
2022/01/20 04:40:35;;;;;;;17.30;3.05;;;;;;;5.74;70.68;102508.34;5015182;28;20045;-73
2022/01/20 04:43:02;;;;;;;30.42;4.15;;;;;;;5.44;71.19;102511.41;5015781;28;20045;-72
2022/01/20 04:45:33;;;;;;;17.00;3.15;;;;;;;5.72;70.17;102501.50;5028722;28;20036;-73
2022/01/20 04:58:56;;;;;;;18.77;2.83;;;;;;;5.38;69.17;102522.66;4993463;28;20057;-73
2022/01/20 05:01:21;;;;;;;19.25;4.00;;;;;;;5.45;69.43;102525.53;4991754;28;20050;-74
2022/01/20 05:03:47;;;;;;;16.90;2.30;;;;;;;5.36;70.33;102529.97;4992916;28;20081;-72
2022/01/20 05:06:12;;;;;;;13.38;4.50;;;;;;;5.12;70.42;102527.88;4992892;28;20481;-73
2022/01/20 05:08:37;;;;;;;23.33;3.00;;;;;;;5.25;70.03;102536.34;4996009;28;20034;-72
2022/01/20 05:11:04;;;;;;;21.48;3.10;;;;;;;5.07;70.87;102527.44;5012265;28;20076;-73
2022/01/20 05:13:35;;;;;;;18.80;2.80;;;;;;;5.07;71.26;102535.44;5012000;28;20037;-73
2022/01/20 05:16:01;;;;;;;12.20;2.28;;;;;;;5.25;70.90;102535.50;5003491;28;20548;-74
2022/01/20 05:18:27;;;;;;;10.75;2.15;;;;;;;5.05;70.90;102545.41;4992961;28;20177;-72
2022/01/20 05:20:53;;;;;;;13.00;3.00;;;;;;;5.13;70.59;102558.03;4993006;28;20039;-73
2022/01/20 05:23:18;;;;;;;13.20;3.03;;;;;;;5.02;71.40;102572.34;4993316;28;20433;-74
2022/01/20 05:25:44;;;;;;;15.52;2.67;;;;;;;5.22;71.06;102559.78;4992651;28;20053;-75
2022/01/20 05:28:10;;;;;;;20.10;2.58;;;;;;;5.03;70.34;102565.22;5031155;28;20075;-73
2022/01/20 05:30:35;;;;;;;22.50;3.05;;;;;;;5.20;71.35;102561.75;5053958;28;20440;-73
2022/01/20 05:33:02;;;;;;;17.83;2.45;;;;;;;5.15;70.73;102572.03;5054525;28;20040;-74
2022/01/20 05:35:29;;;;;;;8.73;2.05;;;;;;;4.88;72.02;102570.16;5054657;28;20132;-74
2022/01/20 05:37:55;;;;;;;11.82;2.58;;;;;;;4.81;71.65;102579.75;5053722;28;20049;-74
2022/01/20 05:40:20;;;;;;;25.08;2.92;;;;;;;4.87;72.11;102600.47;5054093;28;20045;-73
2022/01/20 05:42:46;;;;;;;26.42;3.85;;;;;;;4.97;71.92;102590.59;5059092;28;20052;-73
2022/01/20 05:45:15;;;;;;;17.42;2.75;;;;;;;5.00;71.53;102610.78;5073649;28;20048;-73
2022/01/20 05:47:46;;;;;;;21.85;3.03;;;;;;;4.91;70.62;102611.66;5056969;28;20120;-74
2022/01/20 05:50:18;;;;;;;9.85;2.05;;;;;;;5.09;69.04;102615.25;5053589;28;20040;-75
2022/01/20 05:52:44;;;;;;;10.60;2.30;;;;;;;4.61;70.30;102626.03;5053918;28;20163;-73
2022/01/20 05:55:19;;;;;;;11.13;2.13;;;;;;;4.67;68.86;102612.16;5053620;28;20438;-73
2022/01/20 05:57:46;;;;;;;5.93;1.27;;;;;;;4.53;69.91;102617.91;5053364;28;20025;-73
2022/01/20 06:00:15;;;;;;;5.70;2.08;;;;;;;4.70;68.58;102613.69;5053904;28;20091;-74
2022/01/20 06:05:35;;;;;;;8.60;2.40;;;;;;;4.55;71.00;102607.97;4991943;28;20445;-73
2022/01/20 06:08:03;;;;;;;9.20;2.38;;;;;;;4.49;70.21;102613.84;4991653;28;20050;-73
2022/01/20 06:10:31;;;;;;;15.35;1.73;;;;;;;4.29;72.00;102607.72;4991792;28;20117;-74
2022/01/20 06:12:57;;;;;;;12.38;2.17;;;;;;;4.28;72.18;102607.84;4991525;28;20030;-75
2022/01/20 06:15:22;;;;;;;10.73;1.75;;;;;;;4.33;71.56;102601.13;4991815;28;20564;-75
2022/01/20 06:17:48;;;;;;;10.82;2.45;;;;;;;4.30;72.75;102614.69;4992364;28;20151;-74
2022/01/20 06:20:13;;;;;;;12.68;1.60;;;;;;;4.24;72.36;102619.75;5009725;28;20104;-74
2022/01/20 06:22:39;;;;;;;5.05;1.20;;;;;;;4.31;71.73;102626.19;5009307;28;20037;-73
2022/01/20 06:25:05;;;;;;;21.63;2.65;;;;;;;4.52;71.49;102631.38;5010026;28;20049;-74
2022/01/20 06:27:31;;;;;;;10.30;3.15;;;;;;;4.37;72.62;102626.47;5009825;28;20052;-76
2022/01/20 06:29:56;;;;;;;22.73;2.63;;;;;;;4.32;72.18;102639.34;4993190;28;20029;-72
2022/01/20 06:32:22;;;;;;;15.23;1.75;;;;;;;4.40;72.14;102649.31;5011827;28;20042;-74
2022/01/20 06:34:47;;;;;;;11.60;2.63;;;;;;;4.30;72.16;102653.78;5010932;28;20041;-74
2022/01/20 06:37:13;;;;;;;12.23;2.08;;;;;;;4.47;72.71;102669.91;5011044;28;20132;-74
2022/01/20 06:39:39;;;;;;;20.83;2.20;;;;;;;4.46;73.24;102662.88;5010438;28;20057;-75
2022/01/20 06:42:05;;;;;;;10.57;3.05;;;;;;;4.35;73.18;102665.69;5022856;28;20071;-74
2022/01/20 06:44:30;;;;;;;18.05;2.50;;;;;;;4.14;72.37;102665.00;5033397;28;20037;-73
2022/01/20 06:46:55;;;;;;;8.38;2.58;;;;;;;4.34;72.08;102681.81;5033179;28;20575;-73
2022/01/20 06:49:21;;;;;;;20.13;1.67;;;;;;;4.31;71.73;102680.25;5032961;28;20033;-74
2022/01/20 06:51:47;;;;;;;17.98;2.42;;;;;;;4.24;71.98;102700.44;5033016;28;20483;-75
2022/01/20 06:54:13;;;;;;;9.20;1.85;;;;;;;4.44;71.14;102699.44;5032912;28;20033;-74
2022/01/20 06:56:41;;;;;;;11.52;2.70;;;;;;;4.43;72.45;102707.56;5032602;28;20086;-75
2022/01/20 06:59:11;;;;;;;12.02;3.28;;;;;;;4.34;73.88;102706.56;5030833;28;20171;-73
2022/01/20 07:01:38;;;;;;;13.70;2.63;;;;;;;4.45;73.46;102700.28;5031894;28;20389;-73
2022/01/20 07:04:05;;;;;;;6.72;1.33;;;;;;;4.21;74.47;102694.53;5032413;28;20037;-74
2022/01/20 07:06:30;;;;;;;10.90;2.25;;;;;;;4.18;74.26;102692.16;5030044;28;20510;-75
2022/01/20 07:08:56;;;;;;;10.88;2.33;;;;;;;4.30;73.21;102707.00;5031779;28;20025;-76
2022/01/20 07:11:21;;;;;;;3.45;1.20;;;;;;;3.90;75.18;102696.44;5054187;28;20044;-76
2022/01/20 07:13:46;;;;;;;8.57;1.52;;;;;;;3.92;75.06;102694.50;5037345;28;20048;-78
2022/01/20 07:16:12;;;;;;;11.55;2.17;;;;;;;3.84;75.29;102704.09;5051554;28;20033;-77
2022/01/20 07:18:37;;;;;;;11.38;2.20;;;;;;;3.98;74.37;102696.59;5067616;28;20029;-75
2022/01/20 07:21:03;;;;;;;6.65;1.75;;;;;;;3.78;75.37;102716.13;5054336;28;20032;-75
2022/01/20 07:23:28;;;;;;;9.43;1.70;;;;;;;3.85;75.53;102722.63;5032699;28;20030;-75
2022/01/20 07:25:53;;;;;;;9.30;1.75;;;;;;;3.77;76.03;102709.16;5031931;28;20053;-75
2022/01/20 07:28:19;;;;;;;8.55;1.50;;;;;;;3.97;74.63;102718.84;5032317;28;20350;-76
2022/01/20 07:30:44;;;;;;;5.20;0.98;;;;;;;3.90;74.81;102731.00;5033845;28;20476;-75
2022/01/20 07:33:11;;;;;;;15.20;2.38;;;;;;;3.99;75.91;102730.19;5034551;28;20041;-76
2022/01/20 07:35:37;;;;;;;12.10;2.10;;;;;;;3.94;76.72;102735.09;5039237;28;20463;-77
2022/01/20 07:38:06;;;;;;;6.03;1.75;;;;;;;3.58;78.99;102737.47;5050798;28;20052;-73
2022/01/20 07:40:32;;;;;;;16.83;3.45;;;;;;;3.66;79.05;102730.50;5053966;28;20047;-76
2022/01/20 07:42:59;;;;;;;13.07;2.38;;;;;;;3.83;79.46;102719.25;5055599;28;20091;-77
2022/01/20 07:45:25;;;;;;;19.70;2.03;;;;;;;3.67;79.41;102734.00;5055386;28;20064;-76
2022/01/20 07:47:50;;;;;;;8.73;2.65;;;;;;;3.61;80.07;102743.38;5055759;28;20037;-74
2022/01/20 07:50:16;;;;;;;29.92;3.33;;;;;;;3.63;79.75;102746.72;5035666;28;20037;-75
2022/01/20 07:52:41;;;;;;;6.35;1.70;;;;;;;3.54;79.90;102755.47;5054884;28;20034;-74
2022/01/20 07:55:07;;;;;;;25.58;2.70;;;;;;;3.69;79.59;102759.50;5034437;28;20032;-75
2022/01/20 07:57:33;;;;;;;6.85;1.75;;;;;;;3.88;78.32;102764.88;5049358;28;20037;-75
2022/01/20 07:59:59;;;;;;;12.05;2.13;;;;;;;3.81;78.75;102760.22;5051611;28;20013;-75
2022/01/20 08:02:25;;;;;;;10.27;2.40;;;;;;;3.61;78.95;102775.25;5051026;28;20029;-74
2022/01/20 08:04:51;;;;;;;10.65;2.40;;;;;;;3.79;78.59;102772.81;5051846;28;20044;-76
2022/01/20 08:07:16;;;;;;;9.27;3.85;;;;;;;3.65;78.84;102770.50;5049635;28;20044;-75
2022/01/20 08:09:43;;;;;;;8.95;2.38;;;;;;;3.95;77.41;102766.00;5048935;28;20123;-76
2022/01/20 08:12:08;;;;;;;20.25;2.55;;;;;;;3.86;77.23;102766.81;5047248;28;20120;-75
2022/01/20 08:14:34;;;;;;;12.27;2.58;;;;;;;3.78;76.58;102760.50;5053351;28;20251;-75
2022/01/20 08:16:59;;;;;;;13.52;1.70;;;;;;;3.82;75.57;102761.91;5052107;28;20039;-76
2022/01/20 08:19:24;;;;;;;14.65;2.30;;;;;;;3.97;74.88;102756.06;5049976;28;20136;-75
2022/01/20 08:21:50;;;;;;;18.23;3.78;;;;;;;3.68;75.35;102764.91;5042769;28;20484;-76
2022/01/20 08:24:15;;;;;;;10.30;2.20;;;;;;;4.03;75.07;102750.22;5050726;28;20037;-76
2022/01/20 08:26:41;;;;;;;12.15;2.70;;;;;;;3.89;74.14;102749.78;5033892;28;20516;-74
2022/01/20 08:29:06;;;;;;;12.80;2.50;;;;;;;3.82;74.82;102752.13;5035280;28;20033;-73
2022/01/20 08:31:32;;;;;;;15.45;2.47;;;;;;;3.94;74.57;102760.81;5049412;28;20056;-76
2022/01/20 08:33:58;;;;;;;15.02;1.88;;;;;;;3.90;74.31;102762.06;5041880;28;20041;-75
2022/01/20 08:36:23;;;;;;;15.63;2.83;;;;;;;3.86;74.40;102764.16;5033968;28;20029;-74
2022/01/20 08:38:49;;;;;;;11.80;2.30;;;;;;;3.86;74.78;102771.28;5040127;28;20052;-77
2022/01/20 08:41:14;;;;;;;15.52;2.92;;;;;;;3.96;74.94;102775.69;5035443;28;20145;-75
2022/01/20 08:43:40;;;;;;;10.88;2.40;;;;;;;3.84;74.97;102782.06;5045341;28;20102;-75
2022/01/20 08:46:07;;;;;;;10.68;1.73;;;;;;;3.86;74.64;102787.25;5042090;28;20095;-75
2022/01/20 08:48:37;;;;;;;10.15;3.20;;;;;;;4.01;74.12;102776.09;5032270;28;20099;-75
2022/01/20 08:51:04;;;;;;;13.57;2.38;;;;;;;3.98;74.36;102783.53;5038626;28;20032;-74
2022/01/20 08:53:31;;;;;;;17.27;2.60;;;;;;;4.10;73.92;102787.75;5048148;28;20053;-75
2022/01/20 08:55:57;;;;;;;6.78;1.10;;;;;;;4.15;73.43;102797.00;5047439;28;20587;-74
2022/01/20 08:58:23;;;;;;;15.75;2.75;;;;;;;4.35;72.03;102796.09;5047518;28;20033;-74
2022/01/20 09:00:48;;;;;;;9.00;2.00;;;;;;;4.37;72.09;102793.28;5038830;28;20045;-75
2022/01/20 09:03:14;;;;;;;14.82;2.20;;;;;;;4.52;70.81;102791.91;5039553;28;20124;-75
2022/01/20 09:05:39;;;;;;;11.38;2.45;;;;;;;4.68;70.28;102804.69;5048865;28;20082;-74
2022/01/20 09:08:06;;;;;;;12.13;2.20;;;;;;;4.44;71.73;102824.53;5045660;28;20206;-74
2022/01/20 09:10:37;;;;;;;10.07;2.63;;;;;;;4.55;70.91;102825.41;5049330;28;20136;-76
2022/01/20 09:15:48;;;;;;;16.67;3.42;;;;;;;4.73;72.07;102818.44;5046883;28;20112;-74
2022/01/20 09:18:14;;;;;;;19.90;3.70;;;;;;;4.45;72.88;102844.88;5043411;28;20037;-76
2022/01/20 09:20:40;;;;;;;10.63;3.30;;;;;;;4.39;72.63;102818.78;5036694;28;20113;-74
2022/01/20 09:23:07;;;;;;;12.27;2.42;;;;;;;4.33;72.90;102806.03;5044327;28;20127;-74
2022/01/20 09:25:34;;;;;;;23.08;3.42;;;;;;;4.41;72.76;102810.66;5049802;28;20033;-76
2022/01/20 09:28:00;;;;;;;14.70;2.40;;;;;;;4.52;72.54;102813.19;5045909;28;20048;-74
2022/01/20 09:30:27;;;;;;;14.95;2.78;;;;;;;4.44;72.25;102805.91;5044511;28;20507;-76
2022/01/20 09:33:28;;;;;;;17.38;3.35;;;;;;;4.32;73.63;102808.84;5049635;28;20715;-77
2022/01/20 09:35:46;;;;;;;16.80;2.17;;;;;;;4.52;73.98;102809.72;5035772;28;20492;-76
2022/01/20 09:38:12;;;;;;;9.05;2.20;;;;;;;4.52;73.91;102804.41;5045559;28;20049;-75
2022/01/20 09:40:39;;;;;;;11.18;2.92;;;;;;;4.62;73.89;102815.91;5035024;28;20139;-75
2022/01/20 09:43:07;;;;;;;17.58;2.58;;;;;;;4.82;72.29;102815.75;5039927;28;20113;-76
2022/01/20 09:45:33;;;;;;;20.80;3.03;;;;;;;4.59;72.75;102825.00;5042398;28;20059;-76
2022/01/20 09:47:58;;;;;;;17.65;2.45;;;;;;;4.69;71.89;102823.19;5041231;28;20037;-75
2022/01/20 09:50:25;;;;;;;28.77;3.08;;;;;;;4.83;70.44;102820.13;5045579;28;20434;-77
2022/01/20 09:52:55;;;;;;;12.55;2.53;;;;;;;4.64;69.40;102833.41;5045034;28;20095;-76
2022/01/20 09:55:20;;;;;;;10.70;2.30;;;;;;;4.77;69.90;102841.13;5036959;28;20032;-76
2022/01/20 09:57:46;;;;;;;16.92;2.15;;;;;;;5.08;69.36;102840.03;5039551;28;20487;-77
2022/01/20 10:00:14;;;;;;;8.85;1.23;;;;;;;5.02;67.62;102837.91;5030760;28;20045;-76
2022/01/20 10:03:16;;;;;;;5.88;1.65;;;;;;;5.35;67.28;102853.47;5048668;28;20207;-75
2022/01/20 10:05:49;;;;;;;14.73;1.90;;;;;;;5.44;65.91;102863.31;5021723;28;20105;-75
2022/01/20 10:08:23;;;;;;;7.80;1.90;;;;;;;5.41;66.80;102855.56;5027596;28;20042;-76
2022/01/20 10:10:55;;;;;;;13.15;2.22;;;;;;;5.16;66.78;102867.66;5015294;28;20080;-74
2022/01/20 10:13:24;;;;;;;15.45;3.67;;;;;;;5.47;66.02;102865.66;4991733;28;20100;-77
2022/01/20 10:16:06;;;;;;;8.50;1.38;;;;;;;5.33;66.52;102877.59;5023625;28;20049;-76
2022/01/20 10:18:44;;;;;;;12.05;2.10;;;;;;;5.77;66.02;102873.47;5016960;28;20034;-78
2022/01/20 10:21:10;;;;;;;8.05;1.35;;;;;;;5.61;66.74;102883.91;5019717;28;20046;-78
2022/01/20 10:23:44;;;;;;;7.65;2.13;;;;;;;5.46;66.16;102880.00;5019992;28;20144;-76
2022/01/20 10:26:27;;;;;;;8.75;2.17;;;;;;;5.68;66.99;102877.00;5025899;28;20513;-78
2022/01/20 10:28:56;;;;;;;15.00;2.67;;;;;;;5.76;67.75;102876.31;5022258;28;20041;-78
2022/01/20 10:31:33;;;;;;;15.80;2.33;;;;;;;5.60;67.85;102889.38;5007913;28;20046;-78
2022/01/20 10:34:00;;;;;;;17.33;3.90;;;;;;;5.33;69.29;102890.94;5011969;28;20410;-77
2022/01/20 10:36:25;;;;;;;11.38;2.47;;;;;;;5.72;68.61;102886.38;4993869;28;20641;-78
2022/01/20 10:38:54;;;;;;;13.70;2.67;;;;;;;5.85;68.23;102905.66;5017065;28;20041;-78
2022/01/20 10:41:39;;;;;;;13.32;2.15;;;;;;;5.41;70.42;102908.88;5024539;28;20041;-77
2022/01/20 10:44:16;;;;;;;15.40;2.60;;;;;;;5.46;69.50;102905.81;5027380;28;20041;-78
2022/01/20 10:47:03;;;;;;;18.88;3.50;;;;;;;5.29;69.69;102908.19;5017556;28;20034;-76
2022/01/20 10:49:31;;;;;;;9.10;1.70;;;;;;;5.38;70.51;102898.53;5025195;28;20045;-77
2022/01/20 10:51:59;;;;;;;11.82;2.70;;;;;;;5.28;70.10;102909.19;5026125;28;20745;-77
2022/01/20 10:54:25;;;;;;;10.77;2.00;;;;;;;5.24;69.54;102901.59;5016972;28;20033;-76
2022/01/20 10:56:52;;;;;;;15.90;1.90;;;;;;;5.42;69.43;102909.75;5045195;28;20442;-76
2022/01/20 10:59:20;;;;;;;8.90;1.75;;;;;;;5.43;69.87;102908.75;5038336;28;20045;-77
2022/01/20 11:01:57;;;;;;;15.05;2.95;;;;;;;5.06;70.63;102906.78;5030979;28;20532;-76
2022/01/20 11:04:23;;;;;;;11.45;3.28;;;;;;;4.91;70.88;102916.16;5045697;28;20037;-76
2022/01/20 11:06:53;;;;;;;9.80;2.20;;;;;;;5.26;70.30;102910.31;5037302;28;20459;-75
2022/01/20 11:09:20;;;;;;;9.15;1.65;;;;;;;5.30;70.91;102901.03;5045820;28;20028;-74
2022/01/20 11:11:48;;;;;;;21.73;4.13;;;;;;;5.23;70.83;102892.75;5055718;28;20028;-76
2022/01/20 11:14:14;;;;;;;20.20;1.88;;;;;;;5.24;71.28;102902.44;5054629;28;20040;-75
2022/01/20 11:16:40;;;;;;;13.63;2.80;;;;;;;5.26;71.62;102895.16;5053119;28;20120;-76
2022/01/20 11:19:19;;;;;;;2.20;1.27;;;;;;;4.96;71.66;102884.63;5049191;28;20037;-77
2022/01/20 11:21:45;;;;;;;5.32;1.30;;;;;;;4.94;71.83;102891.91;5054142;28;20045;-77
2022/01/20 11:24:23;;;;;;;9.38;1.38;;;;;;;5.07;71.24;102883.66;5054159;28;20123;-76
2022/01/20 11:26:53;;;;;;;9.25;1.70;;;;;;;5.12;70.86;102881.41;5055076;28;20029;-77
2022/01/20 11:29:20;;;;;;;8.77;3.63;;;;;;;4.96;70.91;102883.75;5037410;28;20056;-76
2022/01/20 11:31:46;;;;;;;12.13;1.75;;;;;;;5.14;70.26;102884.78;5040014;28;20079;-79
2022/01/20 11:34:14;;;;;;;6.70;1.20;;;;;;;5.16;70.19;102885.47;5045037;28;20496;-77
2022/01/20 11:36:41;;;;;;;8.93;1.15;;;;;;;5.12;69.74;102879.59;5045540;28;20033;-78
2022/01/20 11:39:06;;;;;;;18.65;2.38;;;;;;;5.20;69.54;102877.06;5053590;28;20115;-76
2022/01/20 11:41:46;;;;;;;12.43;1.80;;;;;;;5.19;70.02;102869.19;5053816;28;20037;-76
2022/01/20 11:44:14;;;;;;;14.90;2.22;;;;;;;5.37;70.52;102878.16;5053166;28;20037;-77
2022/01/20 11:46:44;;;;;;;9.75;1.65;;;;;;;5.18;70.02;102872.84;5050148;28;20036;-77
2022/01/20 11:49:11;;;;;;;8.23;1.13;;;;;;;5.20;70.73;102870.88;5053638;28;20420;-75
2022/01/20 11:51:45;;;;;;;18.05;1.83;;;;;;;5.18;72.00;102865.69;5045203;28;20469;-76
2022/01/20 11:54:14;;;;;;;4.07;1.52;;;;;;;5.77;70.41;102848.63;5052914;28;20577;-76
2022/01/20 11:56:42;;;;;;;7.55;1.77;;;;;;;5.40;71.68;102869.06;5041341;28;20041;-77
2022/01/20 11:59:10;;;;;;;16.95;3.03;;;;;;;5.85;71.47;102860.28;5046053;28;20546;-77
2022/01/20 12:01:52;;;;;;;15.55;2.35;;;;;;;5.78;71.86;102867.16;5054006;28;20025;-77
2022/01/20 12:04:33;;;;;;;9.88;1.70;;;;;;;5.48;72.36;102878.03;5049183;28;20506;-77
2022/01/20 12:07:00;;;;;;;7.03;2.10;;;;;;;5.17;75.85;102882.66;5034094;28;20041;-76
2022/01/20 12:09:35;;;;;;;17.50;2.40;;;;;;;4.69;78.18;102889.75;5050572;28;20041;-75
2022/01/20 12:12:02;;;;;;;18.15;3.22;;;;;;;4.85;80.18;102879.44;5049252;28;20040;-76
2022/01/20 12:14:38;;;;;;;16.98;5.05;;;;;;;4.85;79.19;102867.94;5035171;28;20036;-77
2022/01/20 12:17:14;;;;;;;11.50;2.20;;;;;;;5.02;77.48;102880.53;5052812;28;20033;-76
2022/01/20 12:19:40;;;;;;;8.43;1.85;;;;;;;5.28;77.16;102873.69;5051089;28;20116;-76
2022/01/20 12:22:06;;;;;;;15.13;2.22;;;;;;;5.06;78.52;102872.16;5048719;28;20049;-76
2022/01/20 12:24:35;;;;;;;21.23;2.95;;;;;;;5.61;76.48;102870.56;5047325;28;20095;-77
2022/01/20 12:27:00;;;;;;;9.38;2.55;;;;;;;5.21;77.29;102883.22;5045116;28;20079;-77
2022/01/20 12:29:34;;;;;;;8.52;1.75;;;;;;;5.11;76.81;102880.56;5055528;28;20475;-78
2022/01/20 12:32:00;;;;;;;3.95;0.98;;;;;;;4.68;77.61;102881.91;5053176;28;20127;-75
2022/01/20 12:34:26;;;;;;;9.68;1.85;;;;;;;4.65;77.87;102874.19;5053057;28;20546;-76
2022/01/20 12:36:57;;;;;;;5.38;2.35;;;;;;;4.76;77.12;102880.22;5052198;28;20044;-76